Time;durP1;ratioP1;P1;durP2;ratioP2;P2;SDS_P1;SDS_P2;PMS_P1;PMS_P2;Temp;Humidity;BMP_temperature;BMP_pressure;BME280_temperature;BME280_humidity;BME280_pressure;Samples;Min_cycle;Max_cycle;Signal;HPM_P1;HPM_P2
2022/09/10 00:00:32;;;;;;;;;;;;;;;16.26;75.83;99667.91;1087489;54;19997;-77
2022/09/10 00:01:34;;;;;;;;;;;;;;;16.21;75.80;99662.28;1087154;54;19999;-77
2022/09/10 00:02:38;;;;;;;;;;;;;;;16.22;75.48;99677.44;1087110;54;19947;-76
2022/09/10 00:03:39;;;;;;;;;;;;;;;16.19;75.42;99667.00;1086725;54;19949;-77
2022/09/10 00:04:43;;;;;;;;;;;;;;;16.27;75.17;99674.97;1086608;54;19947;-78
2022/09/10 00:05:45;;;;;;;;;;;;;;;16.25;75.04;99663.53;1086664;54;19951;-76
2022/09/10 00:06:49;;;;;;;;;;;;;;;16.22;75.05;99667.47;1086861;54;19985;-76
2022/09/10 00:07:53;;;;;;;;;;;;;;;16.29;75.08;99661.31;1086385;54;19969;-77
2022/09/10 00:08:57;;;;;;;;;;;;;;;16.28;74.54;99662.34;1086186;54;19951;-76
2022/09/10 00:09:58;;;;;;;;;;;;;;;16.28;74.57;99657.78;1086998;54;19958;-77
2022/09/10 00:11:05;;;;;;;;;;;;;;;16.26;75.04;99659.00;1086505;54;20251;-80
2022/09/10 00:12:09;;;;;;;;;;;;;;;16.30;74.51;99661.13;1087181;54;19942;-77
2022/09/10 00:13:11;;;;;;;;;;;;;;;16.28;75.04;99657.78;1086587;54;19950;-78
2022/09/10 00:14:16;;;;;;;;;;;;;;;16.27;74.90;99657.97;1086880;54;19946;-78
2022/09/10 00:15:18;;;;;;;;;;;;;;;16.28;74.61;99652.38;1087054;46;19958;-79
2022/09/10 00:16:22;;;;;;;;;;;;;;;16.28;74.59;99648.84;1086524;54;19946;-79
2022/09/10 00:17:23;;;;;;;;;;;;;;;16.26;74.61;99649.03;1086166;54;19958;-79
2022/09/10 00:18:28;;;;;;;;;;;;;;;16.26;75.06;99648.22;1086754;46;19962;-79
2022/09/10 00:19:31;;;;;;;;;;;;;;;16.28;74.50;99651.56;1086589;54;20397;-78
2022/09/10 00:20:32;;;;;;;;;;;;;;;16.22;74.19;99650.47;1086476;54;19956;-78
2022/09/10 00:21:36;;;;;;;;;;;;;;;16.24;74.36;99651.09;1086229;54;20054;-78
2022/09/10 00:22:37;;;;;;;;;;;;;;;16.21;74.80;99646.09;1086292;47;19973;-78
2022/09/10 00:23:45;;;;;;;;;;;;;;;16.21;75.33;99643.38;1086565;47;19947;-78
2022/09/10 00:24:46;;;;;;;;;;;;;;;16.21;74.50;99640.69;1086834;54;19958;-79
2022/09/10 00:25:50;;;;;;;;;;;;;;;16.20;74.74;99645.22;1086708;54;19942;-77
2022/09/10 00:26:52;;;;;;;;;;;;;;;16.21;74.74;99638.81;1086516;54;19953;-79
2022/09/10 00:27:56;;;;;;;;;;;;;;;16.26;74.33;99651.72;1086482;54;20544;-78
2022/09/10 00:28:58;;;;;;;;;;;;;;;16.23;74.65;99635.94;1086487;47;19950;-79
2022/09/10 00:30:02;;;;;;;;;;;;;;;16.29;74.52;99635.16;1086451;54;20035;-79
2022/09/10 00:31:03;;;;;;;;;;;;;;;16.32;74.53;99647.44;1086491;54;19969;-79
2022/09/10 00:32:08;;;;;;;;;;;;;;;16.30;74.08;99644.94;1086589;46;19966;-78
2022/09/10 00:33:09;;;;;;;;;;;;;;;16.29;74.70;99645.97;1086860;54;20002;-77
2022/09/10 00:34:14;;;;;;;;;;;;;;;16.27;74.65;99633.69;1086941;54;19969;-78
2022/09/10 00:35:15;;;;;;;;;;;;;;;16.27;74.54;99642.63;1086901;54;19942;-78
2022/09/10 00:36:20;;;;;;;;;;;;;;;16.30;74.32;99638.69;1086839;54;20316;-78
2022/09/10 00:37:21;;;;;;;;;;;;;;;16.32;74.50;99640.19;1086913;54;19958;-79
2022/09/10 00:38:27;;;;;;;;;;;;;;;16.21;74.94;99638.00;1086784;54;19962;-78
2022/09/10 00:39:33;;;;;;;;;;;;;;;16.04;75.58;99643.63;1086236;54;19953;-79
2022/09/10 00:40:35;;;;;;;;;;;;;;;16.13;75.28;99643.50;1086064;54;19939;-78
2022/09/10 00:41:41;;;;;;;;;;;;;;;16.15;75.49;99641.47;1087171;54;19950;-77
2022/09/10 00:42:42;;;;;;;;;;;;;;;16.15;75.36;99647.69;1087328;54;19942;-74
2022/09/10 00:43:50;;;;;;;;;;;;;;;16.17;74.76;99637.56;1087544;54;19954;-76
2022/09/10 00:44:56;;;;;;;;;;;;;;;16.18;74.88;99646.47;1089453;46;19949;-74
2022/09/10 00:46:00;;;;;;;;;;;;;;;16.21;74.96;99635.31;1087605;54;19942;-74
2022/09/10 00:47:01;;;;;;;;;;;;;;;16.20;74.88;99644.41;1087466;54;20706;-75
2022/09/10 00:48:07;;;;;;;;;;;;;;;16.21;74.66;99636.13;1088563;46;19942;-77
2022/09/10 00:49:13;;;;;;;;;;;;;;;16.20;74.75;99639.03;1087412;54;19958;-73
2022/09/10 00:50:19;;;;;;;;;;;;;;;16.18;74.48;99641.06;1087513;54;19942;-76
2022/09/10 00:51:21;;;;;;;;;;;;;;;16.18;74.58;99638.38;1087515;54;19939;-75
2022/09/10 00:52:26;;;;;;;;;;;;;;;16.21;74.72;99643.38;1087450;54;19954;-75
2022/09/10 00:53:28;;;;;;;;;;;;;;;16.22;74.05;99643.19;1087659;54;19950;-74
2022/09/10 00:54:35;;;;;;;;;;;;;;;16.26;74.31;99642.81;1087531;54;19942;-76
2022/09/10 00:55:39;;;;;;;;;;;;;;;16.23;74.13;99644.03;1087715;54;20009;-75
2022/09/10 00:56:44;;;;;;;;;;;;;;;16.26;74.07;99650.91;1087379;54;19948;-76
2022/09/10 00:57:46;;;;;;;;;;;;;;;16.27;74.02;99645.31;1087501;54;20585;-74
2022/09/10 00:58:51;;;;;;;;;;;;;;;16.26;74.03;99643.63;1087754;46;19949;-76
2022/09/10 00:59:55;;;;;;;;;;;;;;;16.24;74.17;99645.72;1087434;54;19938;-75
2022/09/10 01:01:02;;;;;;;;;;;;;;;16.20;74.35;99649.81;1087504;54;19938;-74
2022/09/10 01:02:04;;;;;;;;;;;;;;;16.23;73.99;99644.03;1087402;54;20245;-74
2022/09/10 01:03:10;;;;;;;;;;;;;;;16.24;73.95;99644.88;1087544;54;19946;-73
2022/09/10 01:04:11;;;;;;;;;;;;;;;16.27;73.82;99642.63;1087971;46;19958;-75
2022/09/10 01:05:16;;;;;;;;;;;;;;;16.28;73.98;99638.91;1087317;54;19939;-75
2022/09/10 01:06:18;;;;;;;;;;;;;;;16.31;73.92;99643.91;1087623;46;19949;-75
2022/09/10 01:07:23;;;;;;;;;;;;;;;16.33;73.85;99644.56;1087364;54;19942;-75
2022/09/10 01:08:26;;;;;;;;;;;;;;;16.35;73.80;99636.28;1087437;54;19951;-75
2022/09/10 01:09:30;;;;;;;;;;;;;;;16.36;73.54;99644.16;1087307;46;19954;-76
2022/09/10 01:10:42;;;;;;;;;;;;;;;16.38;73.74;99644.81;1087538;54;19962;-75
2022/09/10 01:11:59;;;;;;;;;;;;;;;16.42;73.70;99641.72;1087373;54;19942;-75
2022/09/10 01:13:10;;;;;;;;;;;;;;;16.28;74.44;99638.91;1087528;54;19942;-74
2022/09/10 01:14:23;;;;;;;;;;;;;;;16.28;74.34;99646.97;1087426;54;20014;-74
2022/09/10 01:15:29;;;;;;;;;;;;;;;16.26;74.84;99642.81;1087526;54;19943;-74
2022/09/10 01:16:37;;;;;;;;;;;;;;;16.32;74.38;99650.13;1088205;46;19996;-75
2022/09/10 01:17:48;;;;;;;;;;;;;;;16.35;74.49;99642.47;1087537;54;19990;-75
2022/09/10 01:18:56;;;;;;;;;;;;;;;16.33;74.61;99641.88;1087554;46;19954;-74
2022/09/10 01:20:09;;;;;;;;;;;;;;;16.39;74.71;99642.94;1087494;54;19950;-75
2022/09/10 01:21:19;;;;;;;;;;;;;;;16.28;74.80;99646.97;1087509;54;20217;-75
2022/09/10 01:22:27;;;;;;;;;;;;;;;16.20;75.65;99639.03;1087515;54;19958;-74
2022/09/10 01:24:53;;;;;;;;;;;;;;;16.22;74.65;99642.38;1082560;54;19958;-74
2022/09/10 01:26:02;;;;;;;;;;;;;;;16.28;74.46;99638.06;1082639;54;19973;-75
2022/09/10 01:27:17;;;;;;;;;;;;;;;16.33;74.35;99641.00;1082509;54;19947;-74
2022/09/10 01:28:28;;;;;;;;;;;;;;;16.37;73.80;99645.00;1082338;54;19956;-75
2022/09/10 01:29:35;;;;;;;;;;;;;;;16.39;73.99;99642.94;1082478;54;19951;-76
2022/09/10 01:30:43;;;;;;;;;;;;;;;16.41;73.97;99650.84;1082300;54;19953;-74
2022/09/10 01:31:48;;;;;;;;;;;;;;;16.42;73.52;99647.13;1082614;54;19973;-74
2022/09/10 01:33:02;;;;;;;;;;;;;;;16.44;73.35;99645.06;1082651;54;19951;-75
2022/09/10 01:34:06;;;;;;;;;;;;;;;16.44;73.40;99645.06;1082634;47;19978;-74
2022/09/10 01:35:16;;;;;;;;;;;;;;;16.41;73.31;99648.16;1082458;54;20524;-74
2022/09/10 01:36:20;;;;;;;;;;;;;;;16.41;73.64;99640.06;1082672;39;20832;-74
2022/09/10 01:37:27;;;;;;;;;;;;;;;16.41;73.57;99646.28;1082367;54;19953;-75
2022/09/10 01:38:30;;;;;;;;;;;;;;;16.38;73.52;99638.59;1082205;54;19946;-74
2022/09/10 01:39:34;;;;;;;;;;;;;;;16.34;73.73;99638.13;1082106;54;19976;-74
2022/09/10 01:40:36;;;;;;;;;;;;;;;16.37;73.43;99645.84;1082188;54;19962;-74
2022/09/10 01:41:39;;;;;;;;;;;;;;;16.36;73.75;99649.56;1082168;54;19958;-75
2022/09/10 01:42:41;;;;;;;;;;;;;;;16.38;73.31;99647.50;1082230;54;19950;-74
2022/09/10 01:43:47;;;;;;;;;;;;;;;16.41;73.66;99640.88;1082365;54;20538;-74
2022/09/10 01:44:49;;;;;;;;;;;;;;;16.38;73.77;99642.09;1082281;54;19950;-73
2022/09/10 01:45:59;;;;;;;;;;;;;;;16.38;73.65;99647.50;1082420;54;19946;-74
2022/09/10 01:47:07;;;;;;;;;;;;;;;16.37;73.31;99640.44;1082136;54;19947;-74
2022/09/10 01:48:31;;;;;;;;;;;;;;;16.31;73.71;99646.59;1082248;54;19951;-74
2022/09/10 01:49:37;;;;;;;;;;;;;;;16.29;73.59;99637.88;1082185;54;19977;-74
2022/09/10 01:50:46;;;;;;;;;;;;;;;16.33;73.54;99641.88;1082374;54;20563;-74
2022/09/10 01:51:56;;;;;;;;;;;;;;;16.35;73.79;99645.19;1082454;54;19946;-74
2022/09/10 01:53:07;;;;;;;;;;;;;;;16.19;75.03;99642.75;1082597;54;20451;-75
2022/09/10 01:54:16;;;;;;;;;;;;;;;16.25;74.81;99641.97;1082721;54;19977;-74
2022/09/10 01:55:28;;;;;;;;;;;;;;;16.26;74.38;99638.25;1082993;54;19969;-74
2022/09/10 01:56:37;;;;;;;;;;;;;;;16.27;74.72;99645.31;1082822;54;19953;-75
2022/09/10 01:57:47;;;;;;;;;;;;;;;16.22;74.87;99635.09;1082570;54;19947;-75
2022/09/10 01:58:56;;;;;;;;;;;;;;;16.21;74.71;99641.50;1082892;39;20365;-76
2022/09/10 02:00:04;;;;;;;;;;;;;;;16.22;74.50;99636.97;1082674;54;19947;-76
2022/09/10 02:01:10;;;;;;;;;;;;;;;16.16;74.66;99638.56;1082600;54;19953;-75
2022/09/10 02:02:17;;;;;;;;;;;;;;;16.19;74.64;99640.91;1082725;54;19957;-74
2022/09/10 02:03:19;;;;;;;;;;;;;;;16.20;74.69;99633.63;1082735;54;19993;-76
2022/09/10 02:04:24;;;;;;;;;;;;;;;16.00;75.35;99636.13;1082558;54;19954;-74
2022/09/10 02:05:27;;;;;;;;;;;;;;;15.97;75.72;99640.00;1082716;54;20759;-74
2022/09/10 02:06:32;;;;;;;;;;;;;;;16.04;75.68;99630.16;1082764;54;20002;-75
2022/09/10 02:07:34;;;;;;;;;;;;;;;16.03;75.58;99628.47;1082639;54;19947;-74
2022/09/10 02:08:40;;;;;;;;;;;;;;;16.10;75.24;99636.66;1082923;39;20612;-75
2022/09/10 02:09:41;;;;;;;;;;;;;;;16.04;75.66;99627.47;1082354;54;19974;-74
2022/09/10 02:10:52;;;;;;;;;;;;;;;16.04;75.78;99630.16;1082728;54;19974;-75
2022/09/10 02:11:55;;;;;;;;;;;;;;;16.02;75.69;99634.03;1082477;54;19954;-74
2022/09/10 02:12:59;;;;;;;;;;;;;;;15.99;76.23;99629.06;1082467;54;19947;-76
2022/09/10 02:14:03;;;;;;;;;;;;;;;16.00;76.25;99636.94;1082397;54;19958;-76
2022/09/10 02:15:07;;;;;;;;;;;;;;;16.02;75.77;99637.59;1082530;54;19998;-75
2022/09/10 02:16:11;;;;;;;;;;;;;;;16.01;75.80;99630.53;1082526;54;19969;-74
2022/09/10 02:17:15;;;;;;;;;;;;;;;16.02;76.12;99637.59;1082354;54;20464;-75
2022/09/10 02:18:16;;;;;;;;;;;;;;;16.04;75.93;99630.16;1082465;54;19950;-75
2022/09/10 02:19:20;;;;;;;;;;;;;;;16.02;76.02;99624.13;1082425;54;19954;-74
2022/09/10 02:20:22;;;;;;;;;;;;;;;15.96;76.41;99634.81;1082400;54;19947;-74
2022/09/10 02:21:26;;;;;;;;;;;;;;;15.97;76.80;99633.78;1082409;54;19962;-74
2022/09/10 02:22:28;;;;;;;;;;;;;;;15.84;77.44;99634.47;1082359;54;19969;-75
2022/09/10 02:23:37;;;;;;;;;;;;;;;15.73;77.77;99639.31;1082657;54;19955;-75
2022/09/10 02:24:38;;;;;;;;;;;;;;;15.78;77.82;99640.56;1082192;54;20057;-75
2022/09/10 02:25:42;;;;;;;;;;;;;;;15.84;77.39;99634.47;1082406;54;19990;-74
2022/09/10 02:26:46;;;;;;;;;;;;;;;15.82;77.91;99648.09;1082282;54;19939;-75
2022/09/10 02:27:49;;;;;;;;;;;;;;;15.84;77.76;99639.88;1081983;54;19954;-75
2022/09/10 02:28:51;;;;;;;;;;;;;;;15.89;77.67;99648.22;1082165;54;19981;-75
2022/09/10 02:29:58;;;;;;;;;;;;;;;15.78;77.82;99643.28;1082311;54;19958;-76
2022/09/10 02:30:59;;;;;;;;;;;;;;;15.86;77.45;99644.03;1082154;54;19946;-74
2022/09/10 02:32:03;;;;;;;;;;;;;;;15.84;77.87;99643.38;1082537;54;19958;-74
2022/09/10 02:33:04;;;;;;;;;;;;;;;15.77;78.19;99641.63;1082731;39;20661;-75
2022/09/10 02:34:09;;;;;;;;;;;;;;;15.79;78.49;99642.25;1082484;39;20475;-75
2022/09/10 02:35:10;;;;;;;;;;;;;;;15.83;78.01;99635.47;1082320;54;19950;-75
2022/09/10 02:36:14;;;;;;;;;;;;;;;15.84;78.17;99643.38;1082458;54;19994;-73
2022/09/10 02:37:15;;;;;;;;;;;;;;;15.86;78.06;99640.53;1082287;54;19947;-76
2022/09/10 02:38:20;;;;;;;;;;;;;;;15.90;77.49;99645.34;1082170;54;19985;-77
2022/09/10 02:39:21;;;;;;;;;;;;;;;15.88;77.36;99649.22;1081897;39;20680;-74
2022/09/10 02:40:26;;;;;;;;;;;;;;;15.83;78.42;99651.63;1081831;54;19950;-73
2022/09/10 02:41:27;;;;;;;;;;;;;;;15.87;77.87;99651.09;1082330;54;19951;-75
2022/09/10 02:42:32;;;;;;;;;;;;;;;15.73;78.82;99643.84;1082168;54;19939;-74
2022/09/10 02:43:36;;;;;;;;;;;;;;;15.75;78.18;99652.56;1082023;54;19946;-75
2022/09/10 02:44:40;;;;;;;;;;;;;;;15.80;78.15;99649.31;1082583;54;19959;-74
2022/09/10 02:45:46;;;;;;;;;;;;;;;15.75;79.04;99645.34;1082347;54;19958;-75
2022/09/10 02:46:50;;;;;;;;;;;;;;;15.65;78.93;99654.72;1082523;54;20460;-75
2022/09/10 02:47:51;;;;;;;;;;;;;;;15.71;78.91;99651.28;1082367;54;20010;-76
2022/09/10 02:48:55;;;;;;;;;;;;;;;15.65;78.91;99655.56;1082514;39;20455;-75
2022/09/10 02:49:56;;;;;;;;;;;;;;;15.56;79.23;99651.31;1083229;39;20360;-75
2022/09/10 02:51:01;;;;;;;;;;;;;;;15.62;79.71;99649.72;1082129;54;19953;-74
2022/09/10 02:52:02;;;;;;;;;;;;;;;15.62;79.66;99650.56;1082299;54;20002;-75
2022/09/10 02:53:08;;;;;;;;;;;;;;;15.66;78.98;99649.16;1082622;54;20623;-76
2022/09/10 02:54:09;;;;;;;;;;;;;;;15.68;79.08;99647.09;1081927;54;19966;-76
2022/09/10 02:55:13;;;;;;;;;;;;;;;15.71;79.26;99641.34;1082297;54;19946;-75
2022/09/10 02:56:18;;;;;;;;;;;;;;;15.72;79.27;99643.00;1082623;39;20676;-76
2022/09/10 02:57:23;;;;;;;;;;;;;;;15.71;79.30;99641.34;1082824;47;20733;-76
2022/09/10 02:58:24;;;;;;;;;;;;;;;15.73;78.62;99638.44;1082484;54;19973;-74
2022/09/10 02:59:27;;;;;;;;;;;;;;;15.78;78.62;99643.28;1082152;54;19957;-74
2022/09/10 03:00:31;;;;;;;;;;;;;;;15.76;79.11;99638.06;1082662;54;19939;-74
2022/09/10 03:01:37;;;;;;;;;;;;;;;15.72;78.76;99640.31;1082640;54;19947;-74
2022/09/10 03:02:39;;;;;;;;;;;;;;;15.77;78.45;99634.38;1082789;54;19996;-73
2022/09/10 03:03:42;;;;;;;;;;;;;;;15.79;78.55;99643.09;1082515;54;20068;-76
2022/09/10 03:04:44;;;;;;;;;;;;;;;15.82;78.77;99641.88;1083192;54;19977;-74
2022/09/10 03:05:47;;;;;;;;;;;;;;;15.74;78.80;99640.97;1083714;54;19969;-74
2022/09/10 03:06:48;;;;;;;;;;;;;;;15.80;78.73;99633.16;1085909;46;19946;-76
2022/09/10 03:07:54;;;;;;;;;;;;;;;15.81;78.79;99632.13;1085805;39;20578;-74
2022/09/10 03:08:56;;;;;;;;;;;;;;;15.69;78.83;99632.59;1085361;54;19955;-74
2022/09/10 03:10:00;;;;;;;;;;;;;;;15.71;78.93;99630.56;1086314;39;20468;-73
2022/09/10 03:11:01;;;;;;;;;;;;;;;15.69;79.13;99632.59;1084842;54;19947;-74
2022/09/10 03:12:04;;;;;;;;;;;;;;;15.71;78.92;99630.56;1084396;54;19994;-74
2022/09/10 03:13:06;;;;;;;;;;;;;;;15.67;78.87;99640.06;1083787;39;20424;-74
2022/09/10 03:14:15;;;;;;;;;;;;;;;15.71;78.88;99641.34;1082486;54;19954;-73
2022/09/10 03:15:19;;;;;;;;;;;;;;;15.69;78.91;99634.47;1082776;54;19954;-74
2022/09/10 03:16:23;;;;;;;;;;;;;;;15.71;78.94;99627.88;1082556;54;19981;-76
2022/09/10 03:17:27;;;;;;;;;;;;;;;15.71;78.57;99632.44;1083183;39;20324;-75
2022/09/10 03:18:31;;;;;;;;;;;;;;;15.74;78.24;99630.19;1082815;54;19958;-74
2022/09/10 03:19:35;;;;;;;;;;;;;;;15.77;78.37;99634.38;1082847;54;19950;-74
2022/09/10 03:20:36;;;;;;;;;;;;;;;15.78;77.80;99635.19;1082769;54;19957;-74
2022/09/10 03:21:40;;;;;;;;;;;;;;;15.79;78.29;99628.78;1082777;54;19958;-74
2022/09/10 03:22:42;;;;;;;;;;;;;;;15.65;78.44;99625.94;1082815;54;19953;-74
2022/09/10 03:23:46;;;;;;;;;;;;;;;15.70;78.39;99628.06;1082720;54;19946;-74
2022/09/10 03:24:47;;;;;;;;;;;;;;;15.65;78.43;99631.31;1082901;54;19947;-74
2022/09/10 03:25:51;;;;;;;;;;;;;;;15.55;78.70;99641.56;1083082;54;19947;-74
2022/09/10 03:26:52;;;;;;;;;;;;;;;15.46;79.17;99638.09;1082907;54;19970;-74
2022/09/10 03:27:55;;;;;;;;;;;;;;;15.41;79.84;99632.47;1082805;54;20424;-77
2022/09/10 03:28:57;;;;;;;;;;;;;;;15.49;79.73;99635.06;1082705;54;19946;-75
2022/09/10 03:30:01;;;;;;;;;;;;;;;15.51;79.48;99640.25;1082511;54;19955;-75
2022/09/10 03:31:03;;;;;;;;;;;;;;;15.51;79.38;99633.00;1082645;54;19952;-74
2022/09/10 03:32:07;;;;;;;;;;;;;;;15.55;79.53;99636.16;1082727;54;19946;-74
2022/09/10 03:33:11;;;;;;;;;;;;;;;15.59;79.34;99632.91;1082594;54;19970;-74
2022/09/10 03:34:14;;;;;;;;;;;;;;;15.62;78.80;99630.88;1082786;54;19946;-74
2022/09/10 03:35:16;;;;;;;;;;;;;;;15.52;79.10;99625.75;1082841;54;19947;-75
2022/09/10 03:36:21;;;;;;;;;;;;;;;15.56;78.92;99624.38;1082752;54;19977;-75
2022/09/10 03:37:23;;;;;;;;;;;;;;;15.60;78.65;99626.50;1082817;54;20050;-75
2022/09/10 03:38:26;;;;;;;;;;;;;;;15.61;78.90;99621.94;1082750;54;19981;-75
2022/09/10 03:39:27;;;;;;;;;;;;;;;15.57;78.73;99624.16;1082371;54;19963;-74
2022/09/10 03:40:31;;;;;;;;;;;;;;;15.57;79.02;99620.66;1082637;54;19950;-75
2022/09/10 03:41:33;;;;;;;;;;;;;;;15.55;78.89;99628.09;1082899;54;19989;-74
2022/09/10 03:42:36;;;;;;;;;;;;;;;15.57;78.64;99634.13;1083426;46;19950;-74
2022/09/10 03:43:38;;;;;;;;;;;;;;;15.44;79.28;99624.84;1083709;54;20006;-75
2022/09/10 03:44:41;;;;;;;;;;;;;;;15.56;78.95;99624.38;1083628;54;19947;-74
2022/09/10 03:45:42;;;;;;;;;;;;;;;15.45;79.74;99633.75;1083749;54;20711;-75
2022/09/10 03:46:48;;;;;;;;;;;;;;;15.54;79.17;99627.22;1083769;54;20464;-76
2022/09/10 03:47:49;;;;;;;;;;;;;;;15.61;79.08;99624.63;1084244;54;19974;-75
2022/09/10 03:48:55;;;;;;;;;;;;;;;15.55;79.46;99630.78;1083940;54;20019;-75
2022/09/10 03:49:58;;;;;;;;;;;;;;;15.46;79.51;99629.22;1084267;54;19968;-77
2022/09/10 03:51:02;;;;;;;;;;;;;;;15.50;79.66;99633.19;1084184;54;19965;-75
2022/09/10 03:52:03;;;;;;;;;;;;;;;15.46;80.09;99624.63;1084469;54;19946;-75
2022/09/10 03:53:07;;;;;;;;;;;;;;;15.47;79.96;99629.00;1084507;54;19946;-75
2022/09/10 03:54:08;;;;;;;;;;;;;;;15.39;79.88;99631.81;1084725;54;19951;-75
2022/09/10 03:55:12;;;;;;;;;;;;;;;15.31;80.25;99627.34;1084983;54;19946;-76
2022/09/10 03:56:14;;;;;;;;;;;;;;;15.34;80.48;99628.84;1084759;39;20328;-76
2022/09/10 03:57:18;;;;;;;;;;;;;;;15.32;80.29;99626.31;1084157;54;19950;-76
2022/09/10 03:58:19;;;;;;;;;;;;;;;15.40;79.75;99628.91;1084037;54;19958;-75
2022/09/10 03:59:22;;;;;;;;;;;;;;;15.47;80.11;99630.88;1083399;54;19957;-76
2022/09/10 04:00:25;;;;;;;;;;;;;;;15.48;79.85;99624.47;1083420;54;19952;-75
2022/09/10 04:01:29;;;;;;;;;;;;;;;15.43;80.03;99625.84;1083529;54;19951;-75
2022/09/10 04:02:30;;;;;;;;;;;;;;;15.33;80.36;99621.78;1083741;54;19989;-75
2022/09/10 04:03:34;;;;;;;;;;;;;;;15.29;80.96;99624.03;1084711;54;19957;-74
2022/09/10 04:04:37;;;;;;;;;;;;;;;15.29;80.98;99621.34;1087818;39;20199;-76
2022/09/10 04:05:42;;;;;;;;;;;;;;;15.23;81.39;99624.75;1085134;54;19950;-76
2022/09/10 04:06:44;;;;;;;;;;;;;;;15.23;81.59;99624.75;1085421;54;19947;-74
2022/09/10 04:07:47;;;;;;;;;;;;;;;15.28;81.49;99625.03;1085736;54;20631;-76
2022/09/10 04:08:49;;;;;;;;;;;;;;;15.23;81.54;99635.50;1085614;54;19965;-77
2022/09/10 04:09:52;;;;;;;;;;;;;;;15.29;81.00;99621.34;1085998;54;20043;-75
2022/09/10 04:10:55;;;;;;;;;;;;;;;15.28;81.57;99625.03;1086063;54;19961;-75
2022/09/10 04:11:59;;;;;;;;;;;;;;;15.24;81.30;99624.59;1086810;46;20014;-74
2022/09/10 04:13:00;;;;;;;;;;;;;;;15.25;81.60;99628.94;1086146;54;19939;-75
2022/09/10 04:14:04;;;;;;;;;;;;;;;15.25;81.67;99630.78;1085997;54;19977;-76
2022/09/10 04:15:06;;;;;;;;;;;;;;;15.37;81.21;99626.63;1086305;54;19946;-75
2022/09/10 04:16:11;;;;;;;;;;;;;;;15.32;81.64;99626.31;1086390;54;19951;-75
2022/09/10 04:17:12;;;;;;;;;;;;;;;15.31;81.82;99630.03;1086555;46;19946;-75
2022/09/10 04:18:16;;;;;;;;;;;;;;;15.25;81.74;99630.78;1085987;54;20285;-74
2022/09/10 04:19:17;;;;;;;;;;;;;;;15.25;81.35;99626.25;1083218;54;19946;-74
2022/09/10 04:20:24;;;;;;;;;;;;;;;15.30;81.38;99620.31;1083474;54;19947;-75
2022/09/10 04:21:27;;;;;;;;;;;;;;;15.31;81.38;99630.03;1082986;54;19950;-75
2022/09/10 04:22:29;;;;;;;;;;;;;;;15.28;81.89;99627.72;1083382;54;19939;-75
2022/09/10 04:23:32;;;;;;;;;;;;;;;15.31;81.55;99624.66;1085238;54;19951;-76
2022/09/10 04:24:34;;;;;;;;;;;;;;;15.39;81.41;99627.28;1085726;54;19947;-76
2022/09/10 04:25:37;;;;;;;;;;;;;;;15.37;81.35;99628.47;1085761;54;19974;-74
2022/09/10 04:26:41;;;;;;;;;;;;;;;15.34;82.00;99629.66;1085443;54;19959;-74
2022/09/10 04:27:42;;;;;;;;;;;;;;;15.26;81.96;99627.91;1084841;54;19950;-75
2022/09/10 04:28:46;;;;;;;;;;;;;;;15.35;81.93;99630.53;1084685;54;19995;-75
2022/09/10 04:29:47;;;;;;;;;;;;;;;15.32;81.34;99631.72;1084251;54;19946;-75
2022/09/10 04:30:51;;;;;;;;;;;;;;;15.34;81.60;99631.53;1084732;54;19950;-75
2022/09/10 04:31:54;;;;;;;;;;;;;;;15.34;81.46;99631.53;1084529;54;19985;-75
2022/09/10 04:32:57;;;;;;;;;;;;;;;15.35;81.41;99631.34;1083171;54;19951;-75
2022/09/10 04:34:00;;;;;;;;;;;;;;;15.31;81.59;99629.22;1082691;54;19977;-74
2022/09/10 04:35:04;;;;;;;;;;;;;;;15.32;81.98;99630.88;1083588;39;20672;-74
2022/09/10 04:36:07;;;;;;;;;;;;;;;15.24;82.40;99638.03;1082597;54;19951;-75
2022/09/10 04:37:11;;;;;;;;;;;;;;;15.32;82.13;99631.72;1082779;54;19946;-76
2022/09/10 04:38:12;;;;;;;;;;;;;;;15.32;82.38;99631.72;1082257;54;20061;-76
2022/09/10 04:39:16;;;;;;;;;;;;;;;15.31;82.23;99626.53;1082407;54;19951;-75
2022/09/10 04:40:17;;;;;;;;;;;;;;;15.31;82.22;99637.28;1083223;39;20326;-74
2022/09/10 04:41:20;;;;;;;;;;;;;;;15.39;82.16;99643.44;1082725;54;19954;-73
2022/09/10 04:42:22;;;;;;;;;;;;;;;15.36;82.77;99643.78;1082715;47;19953;-73
2022/09/10 04:43:25;;;;;;;;;;;;;;;15.34;82.09;99637.75;1082816;54;19946;-75
2022/09/10 04:44:28;;;;;;;;;;;;;;;15.40;82.06;99642.38;1082754;54;19992;-74
2022/09/10 04:45:33;;;;;;;;;;;;;;;15.37;81.93;99640.09;1082604;54;19950;-73
2022/09/10 04:46:35;;;;;;;;;;;;;;;15.40;82.12;99641.56;1082584;46;19946;-74
2022/09/10 04:47:39;;;;;;;;;;;;;;;15.40;81.95;99639.69;1082428;54;20505;-73
2022/09/10 04:48:40;;;;;;;;;;;;;;;15.43;81.65;99642.03;1082417;54;19947;-74
2022/09/10 04:49:43;;;;;;;;;;;;;;;15.45;81.82;99647.22;1082228;54;19947;-75
2022/09/10 04:50:45;;;;;;;;;;;;;;;15.47;82.12;99649.75;1082484;54;19982;-77
2022/09/10 04:51:51;;;;;;;;;;;;;;;15.53;82.02;99644.44;1082484;54;19970;-74
2022/09/10 04:52:52;;;;;;;;;;;;;;;15.62;81.51;99647.84;1082429;54;20042;-74
2022/09/10 04:53:56;;;;;;;;;;;;;;;15.62;81.38;99644.34;1082710;39;20353;-74
2022/09/10 04:54:58;;;;;;;;;;;;;;;15.56;81.18;99643.22;1082455;54;19978;-76
2022/09/10 04:56:02;;;;;;;;;;;;;;;15.61;80.92;99646.19;1082341;54;19950;-74
2022/09/10 04:57:03;;;;;;;;;;;;;;;15.57;81.26;99645.72;1082409;54;19995;-76
2022/09/10 04:58:07;;;;;;;;;;;;;;;15.66;80.85;99649.16;1082248;54;19970;-75
2022/09/10 04:59:09;;;;;;;;;;;;;;;15.69;81.09;99648.78;1082367;54;20070;-75
2022/09/10 05:00:14;;;;;;;;;;;;;;;15.75;80.76;99647.19;1082312;54;19947;-74
2022/09/10 05:01:15;;;;;;;;;;;;;;;15.68;81.55;99646.28;1082483;54;19947;-76
2022/09/10 05:02:18;;;;;;;;;;;;;;;15.64;81.10;99645.81;1082225;54;19973;-76
2022/09/10 05:03:20;;;;;;;;;;;;;;;15.60;81.16;99645.34;1082426;54;20045;-75
2022/09/10 05:04:24;;;;;;;;;;;;;;;15.59;81.39;99645.53;1082205;54;19954;-75
2022/09/10 05:05:27;;;;;;;;;;;;;;;15.65;81.40;99641.25;1082642;54;20459;-77
2022/09/10 05:06:31;;;;;;;;;;;;;;;15.68;81.13;99649.78;1082596;54;19946;-75
2022/09/10 05:07:34;;;;;;;;;;;;;;;15.62;81.58;99653.25;1082577;54;19970;-76
2022/09/10 05:08:38;;;;;;;;;;;;;;;15.73;81.02;99650.06;1082270;54;20463;-76
2022/09/10 05:09:39;;;;;;;;;;;;;;;15.79;80.24;99655.72;1082214;54;19978;-75
2022/09/10 05:10:44;;;;;;;;;;;;;;;15.83;80.06;99647.06;1082420;54;19947;-75
2022/09/10 05:11:48;;;;;;;;;;;;;;;15.88;80.31;99646.53;1082510;54;19947;-76
2022/09/10 05:12:49;;;;;;;;;;;;;;;15.78;80.34;99652.22;1082340;54;19957;-75
2022/09/10 05:13:53;;;;;;;;;;;;;;;15.80;80.36;99649.31;1082206;54;19950;-77
2022/09/10 05:14:54;;;;;;;;;;;;;;;15.67;81.02;99653.53;1082395;54;19973;-74
2022/09/10 05:15:58;;;;;;;;;;;;;;;15.67;80.87;99648.16;1082488;54;19977;-76
2022/09/10 05:16:59;;;;;;;;;;;;;;;15.68;80.99;99652.47;1082340;54;19950;-74
2022/09/10 05:18:02;;;;;;;;;;;;;;;15.79;80.48;99650.34;1082633;54;19947;-76
2022/09/10 05:19:06;;;;;;;;;;;;;;;15.85;80.16;99652.31;1082264;54;19969;-73
2022/09/10 05:20:08;;;;;;;;;;;;;;;15.89;80.23;99650.91;1082392;54;19970;-74
2022/09/10 05:21:11;;;;;;;;;;;;;;;15.85;80.70;99661.22;1082550;54;19950;-74
2022/09/10 05:22:13;;;;;;;;;;;;;;;15.82;80.34;99649.97;1082336;54;19946;-74
2022/09/10 05:23:19;;;;;;;;;;;;;;;15.80;80.89;99652.00;1082538;54;19958;-76
2022/09/10 05:24:20;;;;;;;;;;;;;;;15.74;80.93;99658.97;1082149;54;19950;-75
2022/09/10 05:25:24;;;;;;;;;;;;;;;15.69;81.40;99646.06;1082455;54;19947;-74
2022/09/10 05:26:26;;;;;;;;;;;;;;;15.67;81.42;99658.06;1082634;54;19969;-76
2022/09/10 05:27:30;;;;;;;;;;;;;;;15.66;81.74;99656.41;1082456;54;19947;-75
2022/09/10 05:28:34;;;;;;;;;;;;;;;15.72;81.12;99652.97;1082550;54;19989;-74
2022/09/10 05:29:38;;;;;;;;;;;;;;;15.67;81.98;99655.38;1082715;54;19947;-76
2022/09/10 05:30:39;;;;;;;;;;;;;;;15.78;81.20;99662.13;1082692;54;19946;-75
2022/09/10 05:31:43;;;;;;;;;;;;;;;15.82;81.24;99661.56;1082557;54;19977;-76
2022/09/10 05:32:44;;;;;;;;;;;;;;;15.70;81.43;99660.41;1083011;39;20352;-75
2022/09/10 05:33:48;;;;;;;;;;;;;;;15.73;80.99;99660.84;1082511;54;19979;-75
2022/09/10 05:34:49;;;;;;;;;;;;;;;15.69;81.76;99658.72;1082730;54;19979;-73